Time;durP1;ratioP1;P1;durP2;ratioP2;P2;SDS_P1;SDS_P2;PMS_P1;PMS_P2;Temp;Humidity;BMP_temperature;BMP_pressure;BME280_temperature;BME280_humidity;BME280_pressure;Samples;Min_cycle;Max_cycle;Signal;HPM_P1;HPM_P2
2022/08/24 00:02:23;;;;;;;40.35;36.13;;;19.90;99.90;;;;;;5100730;28;20099;-51
2022/08/24 00:04:51;;;;;;;37.65;33.75;;;19.80;99.90;;;;;;5101711;28;20035;-52
2022/08/24 00:07:18;;;;;;;37.22;33.33;;;19.80;99.90;;;;;;5101325;28;20048;-52
2022/08/24 00:09:44;;;;;;;37.33;33.42;;;19.80;99.90;;;;;;5100731;28;20059;-53
2022/08/24 00:12:12;;;;;;;37.00;33.05;;;19.80;99.90;;;;;;5101499;28;20036;-52
2022/08/24 00:14:38;;;;;;;37.08;33.15;;;19.80;99.90;;;;;;5100508;28;20403;-52
2022/08/24 00:17:05;;;;;;;37.13;33.15;;;19.70;99.90;;;;;;5097137;28;20043;-53
2022/08/24 00:19:31;;;;;;;37.60;33.47;;;19.70;99.90;;;;;;5080107;28;20041;-52
2022/08/24 00:21:56;;;;;;;35.55;32.03;;;19.70;99.90;;;;;;5080766;28;20041;-53
2022/08/24 00:24:22;;;;;;;34.53;30.15;;;19.70;99.90;;;;;;5078579;28;20048;-53
2022/08/24 00:26:49;;;;;;;35.20;31.50;;;19.70;99.90;;;;;;5080646;28;20125;-51
2022/08/24 00:29:16;;;;;;;34.72;31.13;;;19.70;99.90;;;;;;5081133;28;20040;-53
2022/08/24 00:31:42;;;;;;;34.95;31.27;;;19.80;99.90;;;;;;5079950;28;20045;-52
2022/08/24 00:34:08;;;;;;;34.03;30.42;;;19.80;99.90;;;;;;5080608;28;20104;-54
2022/08/24 00:36:34;;;;;;;32.22;28.90;;;19.80;99.90;;;;;;5079676;28;20507;-53
2022/08/24 00:39:01;;;;;;;33.20;29.70;;;19.80;99.90;;;;;;5096018;28;20040;-52
2022/08/24 00:41:28;;;;;;;30.42;27.30;;;19.80;99.90;;;;;;5100523;28;20060;-51
2022/08/24 00:44:00;;;;;;;30.73;27.58;;;19.80;99.90;;;;;;5100346;28;20124;-52
2022/08/24 00:46:32;;;;;;;32.10;28.48;;;19.80;99.90;;;;;;5100897;28;20048;-53
2022/08/24 00:49:05;;;;;;;31.83;27.55;;;19.80;99.90;;;;;;5099793;28;20036;-52
2022/08/24 00:51:52;;;;;;;30.58;27.23;;;19.70;99.90;;;;;;5100677;28;20048;-53
2022/08/24 00:54:18;;;;;;;29.45;26.38;;;19.70;99.90;;;;;;5100247;28;20054;-52
2022/08/24 00:56:52;;;;;;;28.25;25.25;;;19.60;99.90;;;;;;5100503;28;20072;-51
2022/08/24 00:59:25;;;;;;;32.97;28.23;;;19.60;99.90;;;;;;5100813;28;20044;-53
2022/08/24 01:01:53;;;;;;;30.42;27.17;;;19.60;99.90;;;;;;5099462;28;20040;-53
2022/08/24 01:04:28;;;;;;;28.85;25.75;;;19.50;99.90;;;;;;5100672;28;20042;-53
2022/08/24 01:06:57;;;;;;;29.70;26.50;;;19.50;99.90;;;;;;5099882;28;20036;-52
2022/08/24 01:09:23;;;;;;;30.77;27.55;;;19.50;99.90;;;;;;5100002;28;20091;-52
2022/08/24 01:11:49;;;;;;;31.42;28.05;;;19.50;99.90;;;;;;5100670;28;20036;-51
2022/08/24 01:14:17;;;;;;;29.30;26.20;;;19.50;99.90;;;;;;5099240;28;20044;-51
2022/08/24 01:19:44;;;;;;;28.42;25.52;;;19.40;99.90;;;;;;5078928;28;20059;-52
2022/08/24 01:22:43;;;;;;;30.50;26.05;;;19.40;99.90;;;;;;5078305;28;20055;-53
2022/08/24 01:25:09;;;;;;;27.58;24.77;;;19.30;99.90;;;;;;5078725;28;20061;-52
2022/08/24 01:27:36;;;;;;;29.77;26.58;;;19.30;99.90;;;;;;5079037;28;20048;-53
2022/08/24 01:30:07;;;;;;;29.90;26.75;;;19.30;99.90;;;;;;5078691;28;20056;-52
2022/08/24 01:32:33;;;;;;;29.23;26.08;;;19.30;99.90;;;;;;5079145;28;20044;-53
2022/08/24 01:34:59;;;;;;;28.48;25.42;;;19.30;99.90;;;;;;5079169;28;20047;-50
2022/08/24 01:37:25;;;;;;;29.60;26.48;;;19.30;99.90;;;;;;5081213;28;20100;-52
2022/08/24 01:39:54;;;;;;;29.23;26.13;;;19.30;99.90;;;;;;5096882;28;20042;-51
2022/08/24 01:42:20;;;;;;;29.33;26.20;;;19.20;99.90;;;;;;5099998;28;20040;-52
2022/08/24 01:44:46;;;;;;;27.88;25.05;;;19.20;99.90;;;;;;5098798;28;20047;-52
2022/08/24 01:47:14;;;;;;;29.88;26.67;;;19.20;99.90;;;;;;5099575;28;20052;-53
2022/08/24 01:49:43;;;;;;;29.10;26.08;;;19.20;99.90;;;;;;5098775;28;20046;-50
2022/08/24 01:52:12;;;;;;;28.73;25.17;;;19.20;99.90;;;;;;5099322;28;20058;-52
2022/08/24 01:54:39;;;;;;;28.98;25.83;;;19.20;99.90;;;;;;5099575;28;20044;-52
2022/08/24 01:57:05;;;;;;;28.30;25.20;;;19.10;99.90;;;;;;5098766;28;20054;-51
2022/08/24 01:59:30;;;;;;;28.67;25.63;;;19.10;99.90;;;;;;5099444;28;20071;-51
2022/08/24 02:02:02;;;;;;;27.10;24.27;;;19.10;99.90;;;;;;5098567;28;20479;-53
2022/08/24 02:04:28;;;;;;;28.40;24.50;;;19.10;99.90;;;;;;5099221;28;20032;-51
2022/08/24 02:06:54;;;;;;;28.75;25.75;;;19.10;99.90;;;;;;5098962;28;20131;-53
2022/08/24 02:09:19;;;;;;;29.77;25.60;;;19.10;99.90;;;;;;5099081;28;20092;-52
2022/08/24 02:11:47;;;;;;;27.70;24.77;;;19.00;99.90;;;;;;5099583;28;20052;-54
2022/08/24 02:14:13;;;;;;;27.55;24.63;;;19.00;99.90;;;;;;5098517;28;20490;-53
2022/08/24 02:16:38;;;;;;;28.08;25.08;;;19.00;99.90;;;;;;5098727;28;20038;-52
2022/08/24 02:19:05;;;;;;;27.20;24.35;;;19.00;99.90;;;;;;5078072;28;20602;-53
2022/08/24 02:21:31;;;;;;;26.33;23.63;;;18.90;99.90;;;;;;5079353;28;20037;-50
2022/08/24 02:23:56;;;;;;;28.48;25.52;;;18.90;99.90;;;;;;5078397;28;20044;-53
2022/08/24 02:26:22;;;;;;;27.02;24.20;;;18.90;99.90;;;;;;5078946;28;20132;-51
2022/08/24 02:28:47;;;;;;;29.02;25.92;;;18.90;99.90;;;;;;5077925;28;20048;-52
2022/08/24 02:31:14;;;;;;;28.33;25.13;;;18.90;99.90;;;;;;5078501;28;20041;-52
2022/08/24 02:33:40;;;;;;;26.08;23.27;;;18.80;99.90;;;;;;5079004;28;20500;-53
2022/08/24 02:36:08;;;;;;;27.83;25.05;;;18.80;99.90;;;;;;5076428;28;20053;-53
2022/08/24 02:38:34;;;;;;;27.83;24.90;;;18.80;99.90;;;;;;5090561;28;20036;-53
2022/08/24 02:41:00;;;;;;;28.52;25.52;;;18.80;99.90;;;;;;5098236;28;20044;-50
2022/08/24 02:43:26;;;;;;;27.73;24.92;;;18.90;99.90;;;;;;5099138;28;20067;-52
2022/08/24 02:45:52;;;;;;;27.63;24.73;;;18.80;99.90;;;;;;5099845;28;20052;-52
2022/08/24 02:48:18;;;;;;;27.25;24.52;;;18.70;99.90;;;;;;5102326;28;20036;-52
2022/08/24 02:50:46;;;;;;;29.67;26.67;;;18.70;99.90;;;;;;5103184;28;20122;-50
2022/08/24 02:53:14;;;;;;;31.48;28.17;;;18.70;99.90;;;;;;5102056;28;20044;-51
2022/08/24 02:55:41;;;;;;;30.35;27.40;;;18.70;99.90;;;;;;5103040;28;20087;-53
2022/08/24 02:58:09;;;;;;;30.60;27.40;;;18.80;99.90;;;;;;5102326;28;20498;-53
2022/08/24 03:00:37;;;;;;;29.48;26.50;;;18.70;99.90;;;;;;5101139;28;20047;-51
2022/08/24 03:03:03;;;;;;;29.67;26.58;;;18.70;99.90;;;;;;5102901;28;20044;-52
2022/08/24 03:05:29;;;;;;;31.48;28.08;;;18.70;99.90;;;;;;5102313;28;20043;-53
2022/08/24 03:07:56;;;;;;;32.28;28.98;;;18.70;99.90;;;;;;5084681;28;20773;-53
2022/08/24 03:10:22;;;;;;;33.00;29.65;;;18.70;99.90;;;;;;5101612;28;20100;-52
2022/08/24 03:12:49;;;;;;;33.40;30.05;;;18.70;99.90;;;;;;5102882;28;20127;-53
2022/08/24 03:15:15;;;;;;;33.97;30.40;;;18.60;99.90;;;;;;5101404;28;20051;-51
2022/08/24 03:17:41;;;;;;;33.55;30.15;;;18.60;99.90;;;;;;5092834;28;20044;-52
2022/08/24 03:20:11;;;;;;;32.85;29.45;;;18.60;99.90;;;;;;5082234;28;20109;-52
2022/08/24 03:22:37;;;;;;;33.35;29.95;;;18.60;99.90;;;;;;5081547;28;20123;-52
2022/08/24 03:25:04;;;;;;;32.88;29.38;;;18.60;99.90;;;;;;5082477;28;20041;-52
2022/08/24 03:27:30;;;;;;;31.58;28.27;;;18.60;99.90;;;;;;5081112;28;20096;-53
2022/08/24 03:29:56;;;;;;;33.47;29.85;;;18.70;99.90;;;;;;5081886;28;20044;-53
2022/08/24 03:32:22;;;;;;;32.72;29.48;;;18.60;99.90;;;;;;5081121;28;20041;-50
2022/08/24 03:34:47;;;;;;;32.28;28.90;;;18.60;99.90;;;;;;5081887;28;20100;-52
2022/08/24 03:37:13;;;;;;;32.60;29.10;;;18.60;99.90;;;;;;5081998;28;20094;-51
2022/08/24 03:39:39;;;;;;;32.83;29.30;;;18.60;99.90;;;;;;5101547;28;20048;-50
2022/08/24 03:42:05;;;;;;;32.67;29.13;;;18.70;99.90;;;;;;5102341;28;20439;-52
2022/08/24 03:44:31;;;;;;;31.58;28.38;;;18.60;99.90;;;;;;5101083;28;20040;-52
2022/08/24 03:46:57;;;;;;;36.63;32.92;;;18.60;99.90;;;;;;5102123;28;20032;-53
2022/08/24 03:49:23;;;;;;;34.92;31.17;;;18.60;99.90;;;;;;5099634;28;20044;-53
2022/08/24 03:51:49;;;;;;;33.17;29.70;;;18.30;99.90;;;;;;5101835;28;20062;-52
2022/08/24 03:54:15;;;;;;;30.10;26.90;;;18.40;99.90;;;;;;5101379;28;20614;-52
2022/08/24 03:56:41;;;;;;;30.83;27.75;;;18.50;99.90;;;;;;5101373;28;20094;-53
2022/08/24 03:59:09;;;;;;;29.23;26.23;;;18.40;99.90;;;;;;5100791;28;20516;-52
2022/08/24 04:01:35;;;;;;;31.00;27.65;;;18.40;99.90;;;;;;5100957;28;20075;-53
2022/08/24 04:04:01;;;;;;;29.20;26.30;;;18.50;99.90;;;;;;5101991;28;20044;-52
2022/08/24 04:06:27;;;;;;;30.67;27.58;;;18.40;99.90;;;;;;5100617;28;20093;-58
2022/08/24 04:08:53;;;;;;;28.40;25.45;;;18.40;99.90;;;;;;5101475;28;20043;-52
2022/08/24 04:11:22;;;;;;;29.15;26.10;;;18.40;99.90;;;;;;5101075;28;20085;-53
2022/08/24 04:13:49;;;;;;;29.42;25.98;;;18.40;99.90;;;;;;5101245;28;20057;-53
2022/08/24 04:16:18;;;;;;;28.63;25.73;;;18.40;99.90;;;;;;5101585;28;20079;-50
2022/08/24 04:18:45;;;;;;;31.25;28.00;;;18.20;99.90;;;;;;5081940;28;20052;-53
2022/08/24 04:21:23;;;;;;;32.17;28.70;;;18.30;99.90;;;;;;5081289;28;20079;-53
2022/08/24 04:23:51;;;;;;;29.52;26.50;;;18.30;99.90;;;;;;5080224;28;20043;-52
2022/08/24 04:26:18;;;;;;;28.30;25.50;;;18.30;99.90;;;;;;5080883;28;20044;-53
2022/08/24 04:28:43;;;;;;;29.67;25.70;;;18.10;99.90;;;;;;5080996;28;20444;-52
2022/08/24 04:31:09;;;;;;;28.30;25.45;;;18.20;99.90;;;;;;5080164;28;20048;-51
2022/08/24 04:33:35;;;;;;;30.02;26.83;;;18.30;99.90;;;;;;5081220;28;20104;-52
2022/08/24 04:36:01;;;;;;;29.52;26.38;;;18.20;99.90;;;;;;5078581;28;20056;-52
2022/08/24 04:38:28;;;;;;;28.95;25.83;;;18.20;99.90;;;;;;5091354;28;20105;-51
2022/08/24 04:40:54;;;;;;;30.25;26.98;;;18.30;99.90;;;;;;5099908;28;20056;-51
2022/08/24 04:43:20;;;;;;;29.95;26.88;;;18.30;99.90;;;;;;5100998;28;20100;-52
2022/08/24 04:45:47;;;;;;;30.05;26.95;;;18.40;99.90;;;;;;5099409;28;20047;-51
2022/08/24 04:48:14;;;;;;;29.38;26.42;;;18.40;99.90;;;;;;5100038;28;20052;-52
2022/08/24 04:50:42;;;;;;;29.33;26.33;;;18.40;99.90;;;;;;5101146;28;20036;-52
2022/08/24 04:53:10;;;;;;;29.95;26.85;;;18.50;99.90;;;;;;5099350;28;20056;-53
2022/08/24 04:55:48;;;;;;;29.02;25.98;;;18.50;99.90;;;;;;5101098;28;20389;-53
2022/08/24 04:58:15;;;;;;;28.92;26.00;;;18.50;99.90;;;;;;5099760;28;20130;-52
2022/08/24 05:00:42;;;;;;;31.60;28.38;;;18.50;99.90;;;;;;5100451;28;20040;-52
2022/08/24 05:03:09;;;;;;;30.27;26.77;;;18.50;99.90;;;;;;5099473;28;20068;-52
2022/08/24 05:05:43;;;;;;;30.90;27.58;;;18.60;99.90;;;;;;5099632;28;20044;-51
2022/08/24 05:08:10;;;;;;;32.15;28.85;;;18.60;99.90;;;;;;5100499;28;20032;-53
2022/08/24 05:10:41;;;;;;;33.58;29.55;;;18.70;99.90;;;;;;5098835;28;20051;-52
2022/08/24 05:13:07;;;;;;;32.03;28.63;;;18.70;99.90;;;;;;5100410;28;20063;-53
2022/08/24 05:15:34;;;;;;;31.90;28.50;;;18.80;99.90;;;;;;5099755;28;20051;-53
2022/08/24 05:18:00;;;;;;;31.95;28.25;;;18.80;99.90;;;;;;5087601;28;20074;-53
2022/08/24 05:20:26;;;;;;;32.75;29.25;;;18.90;99.90;;;;;;5079915;28;20048;-53
2022/08/24 05:22:52;;;;;;;31.33;28.08;;;18.90;99.90;;;;;;5079058;28;20068;-53
2022/08/24 05:25:19;;;;;;;31.75;28.42;;;18.90;99.90;;;;;;5079885;28;20055;-53
2022/08/24 05:27:44;;;;;;;32.22;28.67;;;18.90;99.90;;;;;;5078820;28;20100;-52
2022/08/24 05:30:10;;;;;;;31.15;27.77;;;18.90;99.90;;;;;;5079842;28;20037;-51
2022/08/24 05:32:37;;;;;;;34.38;30.60;;;18.90;99.90;;;;;;5079038;28;20068;-52
2022/08/24 05:35:04;;;;;;;32.65;29.15;;;18.90;99.90;;;;;;5079445;28;20041;-52
2022/08/24 05:37:37;;;;;;;34.50;29.63;;;19.00;99.90;;;;;;5082402;28;20416;-53
2022/08/24 05:40:05;;;;;;;34.63;31.13;;;19.10;99.90;;;;;;5098776;28;20080;-51
2022/08/24 05:42:31;;;;;;;33.97;30.27;;;19.20;99.90;;;;;;5099891;28;20534;-53
2022/08/24 05:44:57;;;;;;;33.55;29.95;;;19.20;99.90;;;;;;5080631;28;20048;-52
2022/08/24 05:47:22;;;;;;;34.75;31.20;;;19.30;99.90;;;;;;5098090;28;20055;-52
2022/08/24 05:49:51;;;;;;;36.50;32.70;;;19.40;99.90;;;;;;5097837;28;20047;-50
2022/08/24 05:52:17;;;;;;;36.38;31.52;;;19.40;99.90;;;;;;5099206;28;20050;-49
2022/08/24 05:54:44;;;;;;;36.05;31.73;;;19.50;99.90;;;;;;5099609;28;20040;-49
2022/08/24 05:57:10;;;;;;;34.88;30.90;;;19.50;99.90;;;;;;5098756;28;20134;-51
2022/08/24 05:59:36;;;;;;;33.30;29.80;;;19.50;99.90;;;;;;5099728;28;20032;-49
2022/08/24 06:02:03;;;;;;;33.60;29.58;;;19.60;99.90;;;;;;5098202;28;20048;-50
2022/08/24 06:04:28;;;;;;;33.63;30.02;;;19.70;99.90;;;;;;5099797;28;20143;-52
2022/08/24 06:06:54;;;;;;;34.75;31.15;;;19.70;99.90;;;;;;5095289;28;20523;-51
2022/08/24 06:09:20;;;;;;;32.85;29.25;;;19.80;99.90;;;;;;5095711;28;20100;-50
2022/08/24 06:11:46;;;;;;;33.60;29.73;;;19.90;99.90;;;;;;5096396;28;20040;-51
2022/08/24 06:14:15;;;;;;;33.10;29.58;;;19.90;99.90;;;;;;5094124;28;20052;-52
2022/08/24 06:16:43;;;;;;;34.83;29.55;;;20.00;99.90;;;;;;5094591;28;20068;-50
2022/08/24 06:19:12;;;;;;;33.90;30.27;;;20.10;99.90;;;;;;5075028;28;20051;-51
2022/08/24 06:21:38;;;;;;;35.97;31.70;;;20.20;99.90;;;;;;5075434;28;20056;-48
2022/08/24 06:24:05;;;;;;;32.80;29.20;;;20.20;99.90;;;;;;5075268;28;20037;-49
2022/08/24 06:29:15;;;;;;;33.20;29.10;;;20.40;99.90;;;;;;5075628;28;20071;-49
2022/08/24 06:31:44;;;;;;;32.50;28.58;;;20.40;99.90;;;;;;5074809;28;20044;-52
2022/08/24 06:34:11;;;;;;;30.05;26.95;;;20.50;99.90;;;;;;5075725;28;20048;-49
2022/08/24 06:36:37;;;;;;;32.13;26.90;;;20.50;99.90;;;;;;5074951;28;20097;-50
2022/08/24 06:39:03;;;;;;;30.10;25.67;;;20.60;99.90;;;;;;5091192;28;20063;-52
2022/08/24 06:41:29;;;;;;;27.05;24.38;;;20.70;99.90;;;;;;5095462;28;20047;-52
2022/08/24 06:43:55;;;;;;;27.10;24.02;;;20.70;99.90;;;;;;5093852;28;20233;-52
2022/08/24 06:46:21;;;;;;;26.50;23.73;;;20.90;99.90;;;;;;5095836;28;20036;-51
2022/08/24 06:48:47;;;;;;;27.63;24.63;;;20.90;99.90;;;;;;5094775;28;20104;-52
2022/08/24 06:51:16;;;;;;;26.67;23.88;;;21.00;99.90;;;;;;5095731;28;20983;-49
2022/08/24 06:53:42;;;;;;;25.30;22.60;;;21.00;99.90;;;;;;5094568;28;20048;-51
2022/08/24 06:56:08;;;;;;;26.30;22.58;;;21.10;99.90;;;;;;5095188;28;20068;-50
2022/08/24 06:58:35;;;;;;;25.25;22.65;;;21.10;99.90;;;;;;5094878;28;20036;-50
2022/08/24 07:01:30;;;;;;;26.23;23.10;;;21.20;99.90;;;;;;5095107;28;20051;-50
2022/08/24 07:03:56;;;;;;;25.88;21.90;;;21.20;99.90;;;;;;5090600;28;20063;-49
2022/08/24 07:06:23;;;;;;;24.65;21.27;;;21.30;99.90;;;;;;5094136;28;20048;-50
2022/08/24 07:08:50;;;;;;;24.30;21.80;;;21.40;99.90;;;;;;5095284;28;20213;-51
2022/08/24 07:11:20;;;;;;;26.30;21.65;;;21.40;99.90;;;;;;5093763;28;20076;-48
2022/08/24 07:13:47;;;;;;;24.73;20.90;;;21.50;99.90;;;;;;5095045;28;20040;-49
2022/08/24 07:16:15;;;;;;;25.38;22.77;;;21.60;99.90;;;;;;5095586;28;20048;-50
2022/08/24 07:18:40;;;;;;;24.60;21.77;;;21.60;99.90;;;;;;5076272;28;20135;-53
2022/08/24 07:21:06;;;;;;;21.80;19.65;;;21.80;99.90;;;;;;5075260;28;20142;-50
2022/08/24 07:23:33;;;;;;;21.40;19.13;;;21.90;99.90;;;;;;5074204;28;20052;-49
2022/08/24 07:26:05;;;;;;;21.58;19.38;;;22.00;99.90;;;;;;5075583;28;20396;-49
2022/08/24 07:28:35;;;;;;;24.80;19.80;;;22.10;99.90;;;;;;5074853;28;20104;-48
2022/08/24 07:31:01;;;;;;;18.10;15.88;;;22.20;99.90;;;;;;5074754;28;20083;-51
2022/08/24 07:33:26;;;;;;;18.60;14.50;;;22.30;99.90;;;;;;5078352;28;20052;-49
2022/08/24 07:35:52;;;;;;;16.25;14.20;;;22.40;99.90;;;;;;5077239;28;20052;-52
2022/08/24 07:38:18;;;;;;;17.35;15.38;;;22.50;99.90;;;;;;5087923;28;20055;-51
2022/08/24 07:40:46;;;;;;;21.10;15.73;;;22.50;99.90;;;;;;5097126;28;20048;-50
2022/08/24 07:43:12;;;;;;;16.80;14.27;;;22.60;99.90;;;;;;5098965;28;20032;-49
2022/08/24 07:45:40;;;;;;;17.65;12.63;;;22.70;99.90;;;;;;5098239;28;20040;-52
2022/08/24 07:48:06;;;;;;;15.50;12.90;;;22.70;99.90;;;;;;5098021;28;20119;-49
2022/08/24 07:50:32;;;;;;;15.32;11.98;;;22.80;99.90;;;;;;5097426;28;20078;-50
2022/08/24 07:52:58;;;;;;;15.20;11.98;;;22.90;99.90;;;;;;5096904;28;20064;-50
2022/08/24 07:55:24;;;;;;;14.63;11.63;;;23.00;99.90;;;;;;5097229;28;20066;-50
2022/08/24 07:57:50;;;;;;;15.02;12.07;;;23.00;99.90;;;;;;5097333;28;20044;-52
2022/08/24 08:00:18;;;;;;;13.93;11.70;;;23.20;99.90;;;;;;5098448;28;20055;-52
2022/08/24 08:02:45;;;;;;;14.55;11.15;;;23.30;99.90;;;;;;5097452;28;20062;-51
2022/08/24 08:05:13;;;;;;;14.35;10.98;;;23.40;99.90;;;;;;5095553;28;20131;-50
2022/08/24 08:07:39;;;;;;;13.40;11.30;;;23.40;99.90;;;;;;5093700;28;20844;-50
2022/08/24 08:10:06;;;;;;;13.18;10.85;;;23.40;99.90;;;;;;5086115;28;20385;-50
2022/08/24 08:12:34;;;;;;;15.50;11.35;;;23.50;99.90;;;;;;5098457;28;20048;-50
2022/08/24 08:14:59;;;;;;;14.07;11.13;;;23.50;99.90;;;;;;5097150;28;20055;-49
2022/08/24 08:17:26;;;;;;;15.00;11.80;;;23.70;99.90;;;;;;5090266;28;20122;-49
2022/08/24 08:19:52;;;;;;;13.93;10.63;;;23.70;99.90;;;;;;5077816;28;20063;-51
2022/08/24 08:25:05;;;;;;;16.08;12.13;;;23.90;99.90;;;;;;5078412;28;20056;-48
2022/08/24 08:27:31;;;;;;;15.52;12.48;;;23.90;99.90;;;;;;5076689;28;20595;-51
2022/08/24 08:29:57;;;;;;;16.23;12.82;;;24.00;99.90;;;;;;5077026;28;20103;-50
2022/08/24 08:32:23;;;;;;;15.38;10.65;;;23.90;99.90;;;;;;5076864;28;20040;-52
2022/08/24 08:34:49;;;;;;;14.77;10.70;;;24.10;99.90;;;;;;5077222;28;20131;-49
2022/08/24 08:37:15;;;;;;;14.68;12.70;;;24.20;99.90;;;;;;5077659;28;20543;-49
2022/08/24 08:39:41;;;;;;;15.27;11.65;;;24.30;99.90;;;;;;5096313;28;20048;-51
2022/08/24 08:42:28;;;;;;;16.17;12.85;;;24.40;99.90;;;;;;5086288;28;20068;-50
2022/08/24 08:45:03;;;;;;;16.50;10.60;;;24.40;99.90;;;;;;5092815;28;20087;-52
2022/08/24 08:48:01;;;;;;;12.32;10.02;;;24.40;99.90;;;;;;5090231;28;20048;-50
2022/08/24 08:50:44;;;;;;;15.77;11.10;;;24.60;99.90;;;;;;5086675;28;20412;-50
2022/08/24 08:53:46;;;;;;;13.90;9.93;;;24.60;99.90;;;;;;5095788;28;20040;-50
2022/08/24 08:56:27;;;;;;;12.38;9.38;;;24.60;99.90;;;;;;5084450;28;20047;-50
2022/08/24 08:59:06;;;;;;;13.40;10.27;;;24.70;99.90;;;;;;5097252;28;20108;-50
2022/08/24 09:01:52;;;;;;;16.08;10.18;;;24.70;99.90;;;;;;5096094;28;20056;-56
2022/08/24 09:04:37;;;;;;;10.40;8.63;;;24.80;99.90;;;;;;5084420;28;20057;-51
2022/08/24 09:07:16;;;;;;;10.63;8.43;;;24.90;99.90;;;;;;5076555;28;20048;-50
2022/08/24 09:09:56;;;;;;;12.35;9.73;;;25.00;99.90;;;;;;5074754;28;20047;-51
2022/08/24 09:12:39;;;;;;;13.38;7.68;;;24.90;99.90;;;;;;5077025;28;20070;-51
2022/08/24 09:15:14;;;;;;;13.20;8.98;;;25.10;99.90;;;;;;5075975;28;20052;-52
2022/08/24 09:18:08;;;;;;;10.38;7.65;;;25.10;99.90;;;;;;5085156;28;20039;-52
2022/08/24 09:21:12;;;;;;;13.88;7.00;;;25.20;99.90;;;;;;5097196;28;20125;-50
2022/08/24 09:23:50;;;;;;;11.27;7.28;;;25.20;99.90;;;;;;5094103;28;20590;-50
2022/08/24 09:26:32;;;;;;;9.77;6.30;;;25.30;99.90;;;;;;5096581;28;20056;-49
2022/08/24 09:29:04;;;;;;;11.88;7.40;;;25.40;99.90;;;;;;5095285;28;20116;-51
2022/08/24 09:31:55;;;;;;;9.57;6.00;;;25.40;99.90;;;;;;5095687;28;20048;-52
2022/08/24 09:34:50;;;;;;;9.43;6.33;;;25.50;99.90;;;;;;5096591;28;20058;-51
2022/08/24 09:37:36;;;;;;;9.65;5.57;;;25.60;99.90;;;;;;5095216;28;20082;-52
2022/08/24 09:40:29;;;;;;;11.32;6.30;;;25.60;99.90;;;;;;5095403;28;20062;-50
2022/08/24 09:43:04;;;;;;;11.50;6.05;;;25.80;99.90;;;;;;5096297;28;20174;-50
2022/08/24 09:45:51;;;;;;;8.65;4.88;;;25.80;99.90;;;;;;5096277;28;20082;-48
2022/08/24 09:48:44;;;;;;;8.90;4.22;;;25.80;99.90;;;;;;5095642;28;20048;-47
2022/08/24 09:51:37;;;;;;;7.68;4.18;;;26.00;99.90;;;;;;5096237;28;20052;-50
2022/08/24 09:54:18;;;;;;;7.25;4.30;;;26.10;99.90;;;;;;5095719;28;20462;-50
2022/08/24 09:56:51;;;;;;;8.73;4.68;;;26.10;99.90;;;;;;5094758;28;20103;-46
2022/08/24 09:59:40;;;;;;;9.75;4.70;;;26.10;99.90;;;;;;5096321;28;20101;-48
2022/08/24 10:02:25;;;;;;;7.82;4.00;;;26.10;99.90;;;;;;5095395;28;20048;-49
2022/08/24 10:05:06;;;;;;;7.75;3.88;;;26.30;99.90;;;;;;5095594;28;20645;-50
2022/08/24 10:07:41;;;;;;;7.55;3.55;;;26.30;99.90;;;;;;5096406;28;20051;-50
2022/08/24 10:10:25;;;;;;;8.05;4.68;;;26.40;99.90;;;;;;5095083;28;20048;-49
2022/08/24 10:13:03;;;;;;;8.27;4.28;;;26.50;99.90;;;;;;5095674;28;20534;-52
2022/08/24 10:15:54;;;;;;;7.18;4.00;;;26.50;99.90;;;;;;5095383;28;20154;-49
2022/08/24 10:18:49;;;;;;;9.95;4.22;;;26.50;99.90;;;;;;5080973;28;20064;-49
2022/08/24 10:21:41;;;;;;;6.57;3.45;;;26.70;99.90;;;;;;5077929;28;20048;-51
2022/08/24 10:24:16;;;;;;;7.82;3.67;;;26.60;99.90;;;;;;5078914;28;20127;-49
2022/08/24 10:26:54;;;;;;;6.72;3.35;;;26.70;99.90;;;;;;5078279;28;20048;-49
2022/08/24 10:29:47;;;;;;;7.10;3.42;;;26.80;99.90;;;;;;5078393;28;20538;-49
2022/08/24 10:32:50;;;;;;;7.32;3.78;;;26.80;99.90;;;;;;5078217;28;20044;-49
2022/08/24 10:35:31;;;;;;;5.38;2.70;;;26.80;99.90;;;;;;5078296;28;20076;-49
2022/08/24 10:41:26;;;;;;;5.15;2.70;;;27.00;99.90;;;;;;5098877;28;20055;-50
2022/08/24 10:44:13;;;;;;;7.22;3.42;;;27.10;99.90;;;;;;5098011;28;20115;-49
2022/08/24 10:46:42;;;;;;;6.85;3.10;;;27.10;99.90;;;;;;5095382;28;20041;-52
2022/08/24 10:49:52;;;;;;;6.45;3.22;;;27.20;99.90;;;;;;5096789;28;20043;-51
2022/08/24 10:52:42;;;;;;;6.43;2.55;;;27.20;99.90;;;;;;5057104;28;20049;-52
2022/08/24 10:55:25;;;;;;;6.68;3.13;;;27.20;99.90;;;;;;5061969;28;20599;-51
2022/08/24 10:58:33;;;;;;;7.63;2.83;;;27.30;99.90;;;;;;5082813;28;20477;-52
2022/08/24 11:01:27;;;;;;;8.95;3.28;;;27.40;99.90;;;;;;5093181;28;20040;-52
2022/08/24 11:04:24;;;;;;;7.50;3.10;;;27.50;99.90;;;;;;5098753;28;20119;-52
2022/08/24 11:07:16;;;;;;;6.82;3.10;;;27.70;99.90;;;;;;5097785;28;20060;-51
2022/08/24 11:09:52;;;;;;;7.82;3.60;;;27.60;99.90;;;;;;5101689;28;20036;-50
2022/08/24 11:12:30;;;;;;;7.22;3.70;;;27.70;99.90;;;;;;5102542;28;20047;-52
2022/08/24 11:15:03;;;;;;;7.78;3.00;;;27.80;99.90;;;;;;5100074;28;20052;-49
2022/08/24 11:17:32;;;;;;;7.85;3.33;;;27.90;99.90;;;;;;5094119;28;20032;-52
2022/08/24 11:19:58;;;;;;;7.32;3.85;;;27.90;99.90;;;;;;5080283;28;20052;-52
2022/08/24 11:22:32;;;;;;;7.10;3.60;;;28.00;99.90;;;;;;5081330;28;20048;-49
2022/08/24 11:25:22;;;;;;;5.82;3.00;;;28.00;99.90;;;;;;5081954;28;20048;-52
2022/08/24 11:27:50;;;;;;;6.60;2.83;;;27.90;99.90;;;;;;5073178;28;20052;-52
2022/08/24 11:30:19;;;;;;;5.18;2.78;;;27.90;99.90;;;;;;5081634;28;20033;-53
2022/08/24 11:33:00;;;;;;;5.13;2.20;;;27.90;99.90;;;;;;5081764;28;20049;-50
2022/08/24 11:35:32;;;;;;;4.93;2.07;;;28.10;99.90;;;;;;5080826;28;20052;-52
2022/08/24 11:38:16;;;;;;;7.03;2.60;;;28.30;99.90;;;;;;5088692;28;20354;-52
2022/08/24 11:40:50;;;;;;;5.75;2.00;;;28.40;99.90;;;;;;5100749;28;20123;-51
2022/08/24 11:43:22;;;;;;;6.47;1.92;;;28.40;99.90;;;;;;5100810;28;20067;-51
2022/08/24 11:46:24;;;;;;;6.03;1.90;;;28.50;99.90;;;;;;5094753;28;20204;-50
2022/08/24 11:49:14;;;;;;;5.18;2.00;;;28.40;99.90;;;;;;5090528;28;20052;-52
2022/08/24 11:51:48;;;;;;;3.93;1.77;;;28.50;99.90;;;;;;5081542;28;20056;-52
2022/08/24 11:54:26;;;;;;;4.82;1.77;;;28.50;99.90;;;;;;5081423;28;20076;-51
2022/08/24 11:57:12;;;;;;;6.10;2.20;;;28.70;99.90;;;;;;5080819;28;20052;-49
2022/08/24 12:00:04;;;;;;;5.45;1.60;;;28.90;99.90;;;;;;5082465;28;20078;-52
2022/08/24 12:02:35;;;;;;;5.57;1.70;;;28.70;99.90;;;;;;5091475;28;20541;-49
2022/08/24 12:05:22;;;;;;;4.53;1.83;;;28.90;99.90;;;;;;5089490;28;20105;-49
2022/08/24 12:08:19;;;;;;;5.20;1.70;;;29.10;99.90;;;;;;5091073;28;20054;-51
2022/08/24 12:10:52;;;;;;;3.97;1.75;;;29.20;99.90;;;;;;5089471;28;20099;-48
2022/08/24 12:13:24;;;;;;;3.97;1.77;;;29.00;99.90;;;;;;5089065;28;20056;-52
2022/08/24 12:15:56;;;;;;;6.00;1.80;;;29.00;99.90;;;;;;5089837;28;20047;-52
2022/08/24 12:18:49;;;;;;;4.30;1.83;;;29.00;99.90;;;;;;5087570;28;20052;-52
2022/08/24 12:21:18;;;;;;;4.57;1.75;;;29.10;99.90;;;;;;5090827;28;20081;-49
2022/08/24 12:24:09;;;;;;;5.05;1.80;;;29.00;99.90;;;;;;5089227;28;20508;-51
2022/08/24 12:26:44;;;;;;;4.13;2.15;;;28.80;99.90;;;;;;5090078;28;20055;-51
2022/08/24 12:29:13;;;;;;;6.45;2.05;;;28.50;99.90;;;;;;5100382;28;20044;-52
2022/08/24 12:31:46;;;;;;;4.50;1.92;;;28.50;99.90;;;;;;5098808;28;20113;-52
2022/08/24 12:34:40;;;;;;;4.40;1.83;;;28.50;99.90;;;;;;5101316;28;20040;-51
2022/08/24 12:37:12;;;;;;;6.13;1.95;;;28.30;99.90;;;;;;5101053;28;20036;-51
2022/08/24 12:39:43;;;;;;;4.65;1.70;;;28.30;99.90;;;;;;5078417;28;20055;-52
2022/08/24 12:42:35;;;;;;;4.15;1.65;;;28.30;99.90;;;;;;5080660;28;20512;-52
2022/08/24 12:45:10;;;;;;;4.22;1.50;;;28.50;99.90;;;;;;5079641;28;20052;-50
2022/08/24 12:47:47;;;;;;;5.90;1.80;;;28.80;99.90;;;;;;5080188;28;20045;-52
2022/08/24 12:50:24;;;;;;;3.78;1.38;;;29.00;99.90;;;;;;5079131;28;20078;-51
2022/08/24 12:53:11;;;;;;;4.07;1.45;;;28.90;99.90;;;;;;5079360;28;20056;-51
2022/08/24 12:55:54;;;;;;;3.35;1.40;;;28.80;99.90;;;;;;5080292;28;20040;-48
2022/08/24 12:58:31;;;;;;;2.72;1.20;;;28.50;99.90;;;;;;5080296;28;20040;-50
2022/08/24 13:01:01;;;;;;;4.45;1.73;;;28.50;99.90;;;;;;5086751;28;20131;-50
2022/08/24 13:03:44;;;;;;;6.32;2.33;;;28.40;99.90;;;;;;5089893;28;20100;-51
2022/08/24 13:06:26;;;;;;;7.85;3.40;;;28.30;99.90;;;;;;5086922;28;20096;-52
2022/08/24 13:09:06;;;;;;;6.78;2.92;;;28.40;99.90;;;;;;5088302;28;20040;-51
2022/08/24 13:11:33;;;;;;;6.40;3.28;;;28.70;99.90;;;;;;5088434;28;20041;-51